Time;durP1;ratioP1;P1;durP2;ratioP2;P2;SDS_P1;SDS_P2;PMS_P1;PMS_P2;Temp;Humidity;BMP_temperature;BMP_pressure;BME280_temperature;BME280_humidity;BME280_pressure;Samples;Min_cycle;Max_cycle;Signal;HPM_P1;HPM_P2
2024/01/23 00:02:19;;;;;;;60.40;28.77;;;;;;;-7.81;61.10;96083.53;5024558;28;20514;-77
2024/01/23 00:04:45;;;;;;;59.73;28.73;;;;;;;-7.83;61.44;96085.72;5024617;28;20108;-77
2024/01/23 00:07:11;;;;;;;63.43;27.67;;;;;;;-7.91;61.37;96089.84;5024508;28;20068;-77
2024/01/23 00:09:36;;;;;;;59.90;26.50;;;;;;;-7.93;61.79;96094.66;5024427;28;20108;-76
2024/01/23 00:12:02;;;;;;;65.83;31.37;;;;;;;-8.01;61.63;96087.31;5024169;28;20068;-76
2024/01/23 00:14:27;;;;;;;60.57;29.17;;;;;;;-7.93;61.24;96084.00;5024630;28;20036;-76
2024/01/23 00:16:53;;;;;;;61.97;28.63;;;;;;;-8.05;61.88;96086.31;5024314;28;20053;-76
2024/01/23 00:19:18;;;;;;;66.00;29.50;;;;;;;-7.97;61.76;96084.84;5024570;28;20030;-76
2024/01/23 00:21:43;;;;;;;62.97;29.07;;;;;;;-8.06;61.62;96077.50;5024711;28;20061;-77
2024/01/23 00:24:09;;;;;;;59.50;27.93;;;;;;;-8.03;61.42;96076.13;5024386;28;20110;-76
2024/01/23 00:26:34;;;;;;;56.70;26.33;;;;;;;-8.10;61.64;96078.38;5024823;28;20104;-76
2024/01/23 00:29:00;;;;;;;60.33;27.77;;;;;;;-8.13;61.64;96065.63;5028850;28;20041;-76
2024/01/23 00:31:26;;;;;;;56.10;26.53;;;;;;;-8.06;62.10;96071.38;5028603;28;20112;-77
2024/01/23 00:33:52;;;;;;;54.67;24.67;;;;;;;-8.12;61.68;96068.00;5028195;28;20033;-76
2024/01/23 00:36:17;;;;;;;69.90;30.93;;;;;;;-8.17;61.64;96062.75;5028391;28;20111;-76
2024/01/23 00:38:43;;;;;;;66.77;28.37;;;;;;;-8.20;61.63;96062.53;5028712;28;20109;-77
2024/01/23 00:41:08;;;;;;;62.60;28.40;;;;;;;-8.20;61.68;96043.84;5028087;28;20408;-76
2024/01/23 00:43:34;;;;;;;56.43;27.97;;;;;;;-8.25;61.28;96042.06;5028339;28;20087;-76
2024/01/23 00:45:59;;;;;;;57.33;27.23;;;;;;;-8.13;61.15;96057.63;5027998;28;20516;-76
2024/01/23 00:48:24;;;;;;;55.30;29.27;;;;;;;-8.17;60.98;96059.28;5028377;28;20144;-77
2024/01/23 00:50:50;;;;;;;63.33;26.13;;;;;;;-8.25;60.85;96049.28;5027980;28;20052;-77
2024/01/23 00:53:15;;;;;;;71.13;29.47;;;;;;;-8.25;61.25;96047.41;5027912;28;20116;-76
2024/01/23 00:55:41;;;;;;;60.10;28.03;;;;;;;-8.26;61.00;96047.66;5028341;28;20036;-78
2024/01/23 00:58:06;;;;;;;58.90;30.00;;;;;;;-8.33;61.37;96045.38;5027775;28;20116;-77
2024/01/23 01:00:31;;;;;;;56.57;27.40;;;;;;;-8.25;61.36;96044.72;5028093;28;20404;-76
2024/01/23 01:02:57;;;;;;;59.33;27.27;;;;;;;-8.29;61.56;96044.50;5027738;28;20068;-77
2024/01/23 01:05:22;;;;;;;52.40;24.40;;;;;;;-8.32;61.44;96039.75;5028032;28;20029;-77
2024/01/23 01:07:48;;;;;;;54.93;24.40;;;;;;;-8.24;61.29;96043.66;5027716;28;20045;-76
2024/01/23 01:10:13;;;;;;;58.30;24.97;;;;;;;-8.32;61.47;96038.94;5027623;28;20026;-76
2024/01/23 01:12:39;;;;;;;63.90;25.27;;;;;;;-8.33;61.65;96032.03;5027920;28;20464;-76
2024/01/23 01:15:04;;;;;;;41.43;21.10;;;;;;;-8.36;61.33;96030.00;5027366;28;20480;-77
2024/01/23 01:17:30;;;;;;;49.97;24.70;;;;;;;-8.41;61.78;96032.72;5027716;28;20057;-77
2024/01/23 01:19:56;;;;;;;58.10;25.97;;;;;;;-8.49;61.39;96033.38;5027205;28;20453;-77
2024/01/23 01:22:21;;;;;;;43.20;21.70;;;;;;;-8.39;61.09;96025.22;5027658;28;20175;-76
2024/01/23 01:24:47;;;;;;;48.37;23.43;;;;;;;-8.47;61.31;96023.22;5027504;28;20501;-77
2024/01/23 01:27:12;;;;;;;42.00;22.00;;;;;;;-8.41;60.97;96019.41;5027331;28;20103;-76
2024/01/23 01:29:37;;;;;;;50.03;23.23;;;;;;;-8.51;61.07;96019.53;5027372;28;20083;-77
2024/01/23 01:32:03;;;;;;;51.37;22.93;;;;;;;-8.51;61.14;96016.88;5026762;28;20120;-76
2024/01/23 01:34:29;;;;;;;49.40;22.63;;;;;;;-8.43;60.87;96013.53;5027518;28;20029;-76
2024/01/23 01:36:54;;;;;;;51.67;22.87;;;;;;;-8.58;61.12;96010.03;5026756;28;20034;-76
2024/01/23 01:39:19;;;;;;;49.13;23.03;;;;;;;-8.56;61.46;96007.84;5026919;28;20057;-77
2024/01/23 01:41:51;;;;;;;45.73;23.67;;;;;;;-8.48;61.13;96008.31;5026945;28;20033;-77
2024/01/23 01:44:17;;;;;;;52.23;25.20;;;;;;;-8.47;60.95;96000.00;5027048;28;20499;-77
2024/01/23 01:46:43;;;;;;;42.03;22.57;;;;;;;-8.47;60.97;96007.22;5027279;28;20034;-76
2024/01/23 01:49:10;;;;;;;48.03;24.53;;;;;;;-8.53;61.51;95998.50;5026733;28;20478;-76
2024/01/23 01:51:35;;;;;;;46.33;23.33;;;;;;;-8.54;61.51;96004.09;5025919;28;20155;-76
2024/01/23 01:54:01;;;;;;;50.60;23.00;;;;;;;-8.61;61.49;96005.25;5026467;28;20055;-77
2024/01/23 01:56:27;;;;;;;51.57;24.77;;;;;;;-8.58;61.79;96001.25;5027172;28;20106;-76
2024/01/23 01:58:53;;;;;;;50.60;24.03;;;;;;;-8.57;61.64;95992.16;5026892;28;20021;-76
2024/01/23 02:01:19;;;;;;;53.70;23.73;;;;;;;-8.52;61.61;95999.28;5025831;28;20052;-77
2024/01/23 02:03:44;;;;;;;54.77;26.63;;;;;;;-8.61;61.40;95989.25;5025382;28;20047;-76
2024/01/23 02:06:10;;;;;;;54.57;23.57;;;;;;;-8.64;61.51;95989.84;5026490;28;20038;-76
2024/01/23 02:08:39;;;;;;;52.13;24.33;;;;;;;-8.70;61.47;95976.91;5026432;28;20065;-77
2024/01/23 02:11:04;;;;;;;52.40;22.50;;;;;;;-8.70;61.14;95987.56;5025116;28;20033;-77
2024/01/23 02:13:30;;;;;;;48.23;22.83;;;;;;;-8.79;61.28;95978.59;5026772;28;20037;-76
2024/01/23 02:15:55;;;;;;;52.33;24.17;;;;;;;-8.76;61.28;95980.72;5026104;28;20029;-75
2024/01/23 02:18:21;;;;;;;48.37;26.43;;;;;;;-8.74;61.01;95976.66;5026493;28;20045;-77
2024/01/23 02:20:46;;;;;;;44.00;23.23;;;;;;;-8.75;61.06;95974.28;5026461;28;20029;-77
2024/01/23 02:23:15;;;;;;;53.30;22.87;;;;;;;-8.79;61.12;95971.41;5026292;28;20087;-76
2024/01/23 02:25:41;;;;;;;53.03;24.70;;;;;;;-8.82;61.10;95964.00;5026408;28;20083;-76
2024/01/23 02:28:08;;;;;;;42.63;21.90;;;;;;;-8.80;60.79;95961.81;5026276;28;20112;-78
2024/01/23 02:30:35;;;;;;;48.53;24.23;;;;;;;-8.81;60.45;95960.25;5026833;28;20025;-77
2024/01/23 02:33:03;;;;;;;50.33;23.03;;;;;;;-8.83;60.44;95954.41;5025856;28;20476;-77
2024/01/23 02:35:29;;;;;;;47.40;23.40;;;;;;;-8.79;60.35;95963.41;5026935;28;20096;-77
2024/01/23 02:37:55;;;;;;;48.50;23.47;;;;;;;-8.80;60.02;95950.38;5026144;28;20113;-78
2024/01/23 02:40:20;;;;;;;55.03;22.17;;;;;;;-8.83;59.83;95949.06;5026399;28;20112;-77
2024/01/23 02:42:45;;;;;;;56.00;25.30;;;;;;;-8.86;60.16;95947.78;5026691;28;20030;-76
2024/01/23 02:45:11;;;;;;;51.13;25.37;;;;;;;-8.87;60.11;95945.41;5026121;28;20100;-76
2024/01/23 02:47:36;;;;;;;49.50;24.10;;;;;;;-8.86;59.98;95942.44;5026296;28;20434;-77
2024/01/23 02:50:02;;;;;;;48.53;24.17;;;;;;;-8.85;60.24;95937.91;5024902;28;20112;-77
2024/01/23 02:52:31;;;;;;;42.77;23.20;;;;;;;-8.91;60.38;95937.19;5026287;28;20045;-78
2024/01/23 02:54:56;;;;;;;45.13;22.60;;;;;;;-8.94;60.19;95924.47;5025497;28;20064;-76
2024/01/23 02:57:22;;;;;;;51.17;23.80;;;;;;;-8.92;60.14;95930.28;5026143;28;20140;-77
2024/01/23 02:59:47;;;;;;;61.03;26.07;;;;;;;-9.00;59.94;95914.13;5026002;28;20480;-78
2024/01/23 03:02:12;;;;;;;50.40;26.20;;;;;;;-8.97;59.58;95916.25;5025728;28;20091;-78
2024/01/23 03:04:38;;;;;;;56.63;26.87;;;;;;;-9.14;59.55;95901.53;5025604;28;20075;-78
2024/01/23 03:07:03;;;;;;;49.17;24.00;;;;;;;-9.03;59.26;95918.19;5025281;28;20091;-78
2024/01/23 03:09:29;;;;;;;54.50;24.77;;;;;;;-9.08;59.00;95912.91;5026077;28;20025;-77
2024/01/23 03:11:54;;;;;;;52.57;23.30;;;;;;;-9.09;58.90;95908.69;5025666;28;20056;-77
2024/01/23 03:14:19;;;;;;;53.67;28.10;;;;;;;-9.15;59.08;95902.63;5025444;28;20021;-76
2024/01/23 03:16:45;;;;;;;41.23;24.73;;;;;;;-9.16;59.05;95902.94;5025416;28;20041;-78
2024/01/23 03:19:10;;;;;;;47.20;22.77;;;;;;;-9.19;58.99;95906.16;5025477;28;20037;-77
2024/01/23 03:21:36;;;;;;;57.33;25.37;;;;;;;-9.28;59.24;95899.91;5025453;28;20032;-77
2024/01/23 03:24:01;;;;;;;50.20;24.80;;;;;;;-9.28;59.27;95891.91;5025448;28;20565;-76
2024/01/23 03:26:26;;;;;;;57.37;26.07;;;;;;;-9.29;59.08;95892.97;5025705;28;20469;-78
2024/01/23 03:28:52;;;;;;;39.43;22.40;;;;;;;-9.36;59.25;95886.13;5025355;28;20163;-77
2024/01/23 03:31:17;;;;;;;45.00;24.40;;;;;;;-9.34;59.05;95885.06;5025598;28;20487;-77
2024/01/23 03:33:43;;;;;;;51.43;26.43;;;;;;;-9.37;59.04;95873.91;5023406;28;20037;-77
2024/01/23 03:36:08;;;;;;;50.77;25.07;;;;;;;-9.30;58.37;95875.41;5025208;28;20124;-77
2024/01/23 03:38:33;;;;;;;44.30;23.70;;;;;;;-9.24;58.34;95871.59;5025197;28;20033;-77
2024/01/23 03:40:59;;;;;;;46.60;21.73;;;;;;;-9.30;59.21;95867.41;5024738;28;20091;-76
2024/01/23 03:43:24;;;;;;;48.87;26.07;;;;;;;-9.31;59.63;95871.97;5025115;28;20021;-76
2024/01/23 03:45:50;;;;;;;44.73;22.37;;;;;;;-9.36;59.57;95870.16;5025001;28;20026;-76
2024/01/23 03:48:15;;;;;;;50.57;25.00;;;;;;;-9.30;59.85;95867.41;5024916;28;20037;-76
2024/01/23 03:50:40;;;;;;;47.97;25.13;;;;;;;-9.32;60.23;95862.38;5025060;28;20044;-78
2024/01/23 03:53:06;;;;;;;57.70;26.27;;;;;;;-9.32;60.09;95861.59;5024989;28;20135;-78
2024/01/23 03:55:31;;;;;;;61.07;30.13;;;;;;;-9.32;60.11;95864.25;5025011;28;20030;-78
2024/01/23 03:57:57;;;;;;;56.90;28.97;;;;;;;-9.34;60.21;95853.91;5025038;28;20540;-78
2024/01/23 04:00:22;;;;;;;59.47;27.37;;;;;;;-9.42;60.29;95863.31;5024558;28;20025;-78
2024/01/23 04:02:48;;;;;;;49.87;25.53;;;;;;;-9.46;59.87;95851.66;5024650;28;20080;-77
2024/01/23 04:05:14;;;;;;;55.17;26.80;;;;;;;-9.42;60.05;95859.84;5024441;28;20033;-79
2024/01/23 04:07:40;;;;;;;50.17;27.07;;;;;;;-9.44;59.78;95849.50;5024261;28;20041;-78
2024/01/23 04:10:06;;;;;;;47.47;26.20;;;;;;;-9.35;59.57;95852.28;5024834;28;20029;-78
2024/01/23 04:12:31;;;;;;;43.00;23.53;;;;;;;-9.36;59.13;95856.03;5024825;28;20026;-77
2024/01/23 04:14:58;;;;;;;50.47;24.43;;;;;;;-9.44;59.10;95864.69;5023439;28;20029;-79
2024/01/23 04:17:23;;;;;;;44.53;23.93;;;;;;;-9.44;58.86;95846.84;5022719;28;20051;-77
2024/01/23 04:19:49;;;;;;;53.97;25.47;;;;;;;-9.36;58.74;95859.50;5024730;28;20037;-78
2024/01/23 04:22:14;;;;;;;47.53;24.90;;;;;;;-9.34;58.41;95851.25;5024187;28;20057;-78
2024/01/23 04:24:40;;;;;;;42.17;22.83;;;;;;;-9.41;58.52;95853.44;5024335;28;20033;-78
2024/01/23 04:27:06;;;;;;;42.80;23.33;;;;;;;-9.37;58.33;95863.25;5024312;28;20116;-78
2024/01/23 04:29:31;;;;;;;44.43;23.23;;;;;;;-9.41;58.64;95845.47;5024408;28;20026;-79
2024/01/23 04:31:57;;;;;;;46.43;25.90;;;;;;;-9.44;59.16;95856.69;5025012;28;20108;-77
2024/01/23 04:34:22;;;;;;;56.97;26.70;;;;;;;-9.41;59.17;95856.13;5024085;28;20472;-79
2024/01/23 04:36:48;;;;;;;50.13;26.70;;;;;;;-9.43;58.90;95850.28;5024670;28;20036;-79
2024/01/23 04:39:14;;;;;;;53.17;22.67;;;;;;;-9.47;59.43;95847.41;5024076;28;20092;-79
2024/01/23 04:41:40;;;;;;;52.90;25.90;;;;;;;-9.44;59.37;95846.84;5024577;28;20093;-77
2024/01/23 04:44:05;;;;;;;55.77;28.10;;;;;;;-9.30;59.11;95848.78;5024192;28;20030;-77
2024/01/23 04:46:30;;;;;;;54.80;28.60;;;;;;;-9.24;58.44;95851.06;5024357;28;20033;-78
2024/01/23 04:48:56;;;;;;;58.77;29.27;;;;;;;-9.36;58.76;95848.06;5024661;28;20039;-79
2024/01/23 04:51:21;;;;;;;50.30;27.73;;;;;;;-9.40;59.11;95847.06;5024327;28;20025;-79
2024/01/23 04:53:47;;;;;;;51.57;25.33;;;;;;;-9.42;59.31;95844.66;5024874;28;20472;-78
2024/01/23 04:56:13;;;;;;;54.47;28.03;;;;;;;-9.37;58.80;95846.47;5024357;28;20056;-79
2024/01/23 04:58:39;;;;;;;51.00;26.60;;;;;;;-9.41;58.67;95846.25;5024615;28;20474;-78
2024/01/23 05:01:04;;;;;;;55.00;29.60;;;;;;;-9.37;58.72;95852.59;5023957;28;20515;-79
2024/01/23 05:03:29;;;;;;;50.13;24.97;;;;;;;-9.52;59.27;95844.81;5024134;28;20029;-78
2024/01/23 05:05:55;;;;;;;55.87;28.07;;;;;;;-9.42;59.09;95855.31;5024530;28;20506;-79
2024/01/23 05:08:20;;;;;;;51.83;25.80;;;;;;;-9.54;59.46;95844.31;5023589;28;20044;-78
2024/01/23 05:10:45;;;;;;;40.20;23.30;;;;;;;-9.56;59.32;95851.81;5024370;28;20056;-80
2024/01/23 05:13:11;;;;;;;59.03;25.50;;;;;;;-9.48;59.39;95847.69;5024692;28;20033;-80
2024/01/23 05:15:37;;;;;;;55.03;27.43;;;;;;;-9.44;59.14;95840.72;5028257;28;20033;-79
2024/01/23 05:18:06;;;;;;;59.33;25.37;;;;;;;-9.45;58.96;95849.78;5027184;28;20042;-80
2024/01/23 05:20:32;;;;;;;51.80;25.20;;;;;;;-9.52;58.91;95838.69;5027599;28;20029;-78
2024/01/23 05:22:58;;;;;;;62.53;27.23;;;;;;;-9.60;59.24;95834.81;5028045;28;20021;-78
2024/01/23 05:25:25;;;;;;;46.83;24.83;;;;;;;-9.57;59.09;95834.25;5027389;28;20472;-80
2024/01/23 05:27:50;;;;;;;49.33;24.17;;;;;;;-9.60;59.17;95829.50;5028014;28;20040;-78
2024/01/23 05:30:16;;;;;;;57.83;26.47;;;;;;;-9.57;58.72;95825.47;5029174;28;20029;-78
2024/01/23 05:32:44;;;;;;;56.60;25.50;;;;;;;-9.67;58.77;95829.84;5032741;28;20029;-79
2024/01/23 05:35:09;;;;;;;56.73;29.03;;;;;;;-9.66;58.69;95826.09;5032088;28;20036;-79
2024/01/23 05:37:35;;;;;;;51.93;25.57;;;;;;;-9.80;59.10;95817.25;5032657;28;20025;-80
2024/01/23 05:40:00;;;;;;;56.60;25.20;;;;;;;-9.76;59.10;95817.47;5034028;28;20033;-80
2024/01/23 05:42:25;;;;;;;51.67;27.93;;;;;;;-9.75;58.98;95809.19;5031053;28;20124;-79
2024/01/23 05:44:51;;;;;;;61.67;30.53;;;;;;;-9.76;58.90;95814.78;5034313;28;20025;-84
2024/01/23 05:47:16;;;;;;;46.20;24.63;;;;;;;-9.74;58.90;95813.44;5028394;28;20029;-82
2024/01/23 05:49:42;;;;;;;45.53;25.20;;;;;;;-9.89;59.20;95800.34;5028141;28;20030;-82
2024/01/23 05:52:08;;;;;;;59.17;26.90;;;;;;;-9.73;58.82;95811.56;5026990;28;20128;-81
2024/01/23 05:54:33;;;;;;;49.90;25.03;;;;;;;-9.71;58.41;95807.53;5027466;28;20033;-82
2024/01/23 05:56:59;;;;;;;51.30;27.60;;;;;;;-9.69;58.26;95808.06;5026430;28;20056;-84
2024/01/23 05:59:24;;;;;;;50.60;24.77;;;;;;;-9.71;58.28;95817.38;5026483;28;20064;-84
2024/01/23 06:01:50;;;;;;;49.70;25.40;;;;;;;-9.68;58.29;95806.97;5027238;28;20116;-83
2024/01/23 06:04:15;;;;;;;51.70;23.63;;;;;;;-9.65;58.33;95813.59;5026885;28;20025;-84
2024/01/23 06:06:41;;;;;;;48.20;26.77;;;;;;;-9.57;58.34;95807.63;5027759;28;20107;-84
2024/01/23 06:09:09;;;;;;;52.03;27.63;;;;;;;-9.50;58.30;95813.38;5027035;28;20025;-85
2024/01/23 06:11:34;;;;;;;50.20;26.13;;;;;;;-9.48;58.40;95816.53;5027475;28;20037;-85
2024/01/23 06:13:59;;;;;;;60.17;32.23;;;;;;;-9.53;58.88;95816.59;5027131;28;20088;-85
2024/01/23 06:16:25;;;;;;;59.27;30.97;;;;;;;-9.51;59.20;95829.66;5026979;28;20029;-84
2024/01/23 06:18:50;;;;;;;67.67;30.83;;;;;;;-9.44;59.21;95832.75;5027193;28;20025;-82
2024/01/23 06:21:15;;;;;;;71.87;36.20;;;;;;;-9.37;58.93;95835.81;5026626;28;20409;-82
2024/01/23 06:23:41;;;;;;;69.90;34.90;;;;;;;-9.29;58.65;95837.03;5027068;28;20042;-83
2024/01/23 06:26:06;;;;;;;69.57;33.63;;;;;;;-9.34;58.78;95843.25;5025105;28;20488;-83
2024/01/23 06:28:31;;;;;;;60.23;33.37;;;;;;;-9.41;58.63;95848.13;5026784;28;20033;-81
2024/01/23 06:30:57;;;;;;;49.40;29.37;;;;;;;-9.48;58.43;95850.34;5026303;28;20036;-81
2024/01/23 06:33:22;;;;;;;54.30;27.53;;;;;;;-9.45;58.07;95858.56;5026176;28;20032;-81
2024/01/23 06:35:48;;;;;;;40.47;23.30;;;;;;;-9.41;57.54;95864.09;5026124;28;20029;-82
2024/01/23 06:38:13;;;;;;;41.83;23.27;;;;;;;-9.33;56.91;95863.47;5025939;28;20017;-83
2024/01/23 06:40:38;;;;;;;50.83;26.10;;;;;;;-9.30;56.43;95859.44;5026296;28;20215;-81
2024/01/23 06:43:04;;;;;;;42.60;23.40;;;;;;;-9.39;57.10;95864.63;5025953;28;20029;-81
2024/01/23 06:45:29;;;;;;;40.53;22.13;;;;;;;-9.35;56.97;95860.28;5027325;28;20116;-82
2024/01/23 06:47:55;;;;;;;44.50;25.17;;;;;;;-9.33;57.14;95860.03;5026024;28;20067;-80
2024/01/23 06:50:20;;;;;;;43.33;24.53;;;;;;;-9.32;57.51;95858.94;5025958;28;20025;-82
2024/01/23 06:52:45;;;;;;;44.87;23.97;;;;;;;-9.27;57.22;95858.88;5026272;28;20029;-82
2024/01/23 06:55:11;;;;;;;46.13;22.53;;;;;;;-9.24;57.37;95861.72;5024704;28;20507;-83
2024/01/23 06:57:36;;;;;;;40.30;23.17;;;;;;;-9.18;57.31;95859.78;5025787;28;20041;-82
2024/01/23 07:00:03;;;;;;;48.23;22.13;;;;;;;-9.11;57.11;95841.59;5026127;28;20352;-81
2024/01/23 07:02:28;;;;;;;49.10;25.70;;;;;;;-8.99;57.14;95839.25;5025782;28;20031;-80
2024/01/23 07:04:54;;;;;;;56.40;26.83;;;;;;;-8.89;57.40;95831.13;5025833;28;20029;-83
2024/01/23 07:07:19;;;;;;;51.13;28.83;;;;;;;-8.85;56.97;95829.44;5025683;28;20042;-82
2024/01/23 07:09:45;;;;;;;61.23;29.70;;;;;;;-8.80;56.21;95838.44;5025845;28;20021;-82
2024/01/23 07:12:10;;;;;;;53.70;23.90;;;;;;;-8.93;56.07;95826.66;5025367;28;20028;-82
2024/01/23 07:14:36;;;;;;;43.77;25.90;;;;;;;-9.03;56.40;95822.25;5026566;28;20112;-82
2024/01/23 07:17:01;;;;;;;46.40;24.57;;;;;;;-9.08;57.47;95817.00;5034450;28;20475;-83
2024/01/23 07:19:26;;;;;;;46.70;26.07;;;;;;;-8.96;57.76;95817.34;5040600;28;20057;-83
2024/01/23 07:21:52;;;;;;;56.27;28.80;;;;;;;-8.77;57.69;95825.31;5030418;28;20515;-83
2024/01/23 07:24:18;;;;;;;49.03;28.37;;;;;;;-8.65;57.70;95841.63;5025472;28;20123;-83
2024/01/23 07:26:43;;;;;;;62.33;31.30;;;;;;;-8.48;57.86;95846.41;5026389;28;20415;-83
2024/01/23 07:29:09;;;;;;;47.53;29.87;;;;;;;-8.26;57.55;95852.94;5036368;28;20017;-82
2024/01/23 07:31:35;;;;;;;55.87;28.20;;;;;;;-8.19;57.50;95859.47;5025078;28;20040;-82
2024/01/23 07:34:00;;;;;;;54.43;32.63;;;;;;;-7.96;57.39;95857.72;5040791;28;20107;-80
2024/01/23 07:36:26;;;;;;;61.47;30.10;;;;;;;-7.83;57.41;95848.91;5056671;28;20032;-81
2024/01/23 07:38:51;;;;;;;64.63;32.87;;;;;;;-7.71;57.28;95852.94;5045701;28;20033;-81
2024/01/23 07:41:17;;;;;;;64.43;35.67;;;;;;;-7.51;56.70;95856.00;5045379;28;20146;-80
2024/01/23 07:43:42;;;;;;;66.57;34.47;;;;;;;-7.32;56.24;95857.75;5045674;28;20515;-81
2024/01/23 07:46:08;;;;;;;70.90;36.00;;;;;;;-7.18;55.87;95860.38;5047600;28;20025;-81
2024/01/23 07:48:33;;;;;;;73.73;34.60;;;;;;;-6.90;55.23;95855.72;5044964;28;20056;-81
2024/01/23 07:50:58;;;;;;;68.67;36.83;;;;;;;-6.80;54.85;95850.16;5045618;28;20033;-85
2024/01/23 07:53:24;;;;;;;70.90;33.27;;;;;;;-6.57;54.12;95859.75;5045065;28;20029;-82
2024/01/23 07:55:50;;;;;;;67.57;34.37;;;;;;;-6.33;53.58;95851.38;5045529;28;20472;-82
2024/01/23 07:58:16;;;;;;;71.73;35.73;;;;;;;-5.97;53.30;95853.13;5044894;28;20592;-79
2024/01/23 08:00:41;;;;;;;70.57;33.27;;;;;;;-5.68;52.13;95850.72;5045632;28;20100;-83
2024/01/23 08:03:07;;;;;;;70.17;34.47;;;;;;;-5.24;51.29;95856.94;5046215;28;20052;-82
2024/01/23 08:05:33;;;;;;;76.30;33.37;;;;;;;-4.82;50.21;95857.28;5045245;28;20029;-84
2024/01/23 08:07:59;;;;;;;75.07;37.37;;;;;;;-4.27;48.92;95851.22;5045354;28;20384;-80
2024/01/23 08:10:24;;;;;;;77.37;36.20;;;;;;;-3.53;47.10;95848.09;5044434;28;20029;-82
2024/01/23 08:12:50;;;;;;;83.20;38.90;;;;;;;-2.53;45.32;95845.66;5044874;28;20119;-81
2024/01/23 08:15:17;;;;;;;83.93;39.08;;;;;;;-1.16;41.82;95839.78;5044023;28;20028;-82
2024/01/23 08:17:43;;;;;;;80.82;40.17;;;;;;;0.24;39.21;95842.50;5043191;28;20521;-82
2024/01/23 08:20:09;;;;;;;84.28;41.70;;;;;;;1.45;37.00;95843.72;5044759;28;20032;-81
2024/01/23 08:22:35;;;;;;;89.10;42.47;;;;;;;2.35;34.66;95849.66;5044322;28;20060;-80
2024/01/23 08:25:00;;;;;;;92.50;45.58;;;;;;;3.35;33.40;95843.06;5044775;28;20075;-88
2024/01/23 08:27:26;;;;;;;78.55;44.67;;;;;;;4.18;32.15;95835.47;5044727;28;20070;-82
2024/01/23 08:29:51;;;;;;;94.28;46.60;;;;;;;4.80;31.37;95834.84;5044679;28;20479;-81
2024/01/23 08:32:17;;;;;;;96.90;49.55;;;;;;;5.45;29.85;95844.22;5042676;28;20039;-81
2024/01/23 08:34:43;;;;;;;108.90;52.25;;;;;;;6.05;29.61;95847.25;5044987;28;20515;-81
2024/01/23 08:37:08;;;;;;;103.57;54.97;;;;;;;6.52;28.43;95836.44;5044520;28;20116;-81
2024/01/23 08:39:34;;;;;;;112.47;54.95;;;;;;;7.07;28.02;95844.28;5043721;28;20147;-81
2024/01/23 08:41:59;;;;;;;104.20;55.28;;;;;;;7.72;27.13;95849.22;5044486;28;20620;-80
2024/01/23 08:44:25;;;;;;;99.13;52.90;;;;;;;8.08;26.31;95843.59;5043873;28;20479;-80
2024/01/23 08:46:50;;;;;;;107.95;56.80;;;;;;;8.39;26.08;95841.91;5043427;28;20460;-80
2024/01/23 08:49:16;;;;;;;108.38;56.58;;;;;;;8.91;25.46;95847.41;5046759;28;20503;-80
2024/01/23 08:51:42;;;;;;;108.15;57.67;;;;;;;9.50;24.66;95841.00;5048234;28;20021;-81
2024/01/23 08:54:07;;;;;;;104.00;55.13;;;;;;;9.77;24.20;95844.63;5047635;28;20463;-81
2024/01/23 08:56:32;;;;;;;105.07;56.83;;;;;;;9.97;23.84;95853.03;5046500;28;20029;-82
2024/01/23 08:58:58;;;;;;;103.20;57.38;;;;;;;10.40;23.60;95846.25;5048500;28;20076;-82
2024/01/23 09:01:23;;;;;;;102.10;55.40;;;;;;;11.02;22.73;95842.22;5048096;28;20231;-80
2024/01/23 09:03:49;;;;;;;99.35;56.67;;;;;;;11.60;22.55;95835.28;5048377;28;20029;-82
2024/01/23 09:06:14;;;;;;;105.78;58.03;;;;;;;11.69;22.04;95829.22;5047568;28;20036;-80
2024/01/23 09:08:43;;;;;;;101.60;58.80;;;;;;;12.35;21.37;95819.28;5048363;28;20036;-80
2024/01/23 09:11:08;;;;;;;96.75;59.42;;;;;;;12.66;21.10;95823.28;5047641;28;20029;-80
2024/01/23 09:13:34;;;;;;;104.88;58.70;;;;;;;12.99;20.84;95815.81;5047637;28;20100;-81
2024/01/23 09:16:00;;;;;;;110.80;64.05;;;;;;;13.54;20.35;95805.78;5047904;28;20032;-82
2024/01/23 09:18:27;;;;;;;106.28;61.45;;;;;;;14.06;19.64;95809.50;5045567;28;20071;-81
2024/01/23 09:20:53;;;;;;;96.00;58.83;;;;;;;14.23;19.73;95810.22;5047885;28;20115;-81
2024/01/23 09:23:18;;;;;;;99.85;61.00;;;;;;;14.28;19.65;95810.44;5047367;28;20099;-80
2024/01/23 09:25:44;;;;;;;103.28;60.33;;;;;;;14.90;18.89;95817.69;5048205;28;20113;-80
2024/01/23 09:28:09;;;;;;;109.95;62.13;;;;;;;15.24;19.08;95809.44;5047738;28;20025;-80
2024/01/23 09:30:35;;;;;;;108.40;63.20;;;;;;;15.42;18.49;95811.63;5047675;28;20507;-83
2024/01/23 09:33:02;;;;;;;103.65;60.75;;;;;;;15.93;18.25;95800.38;5047075;28;20161;-80
2024/01/23 09:35:31;;;;;;;95.82;59.63;;;;;;;15.84;18.24;95812.19;5047536;28;20045;-80
2024/01/23 09:37:56;;;;;;;107.35;63.42;;;;;;;16.23;17.93;95800.88;5047689;28;20029;-79
2024/01/23 09:40:22;;;;;;;107.93;62.78;;;;;;;16.44;17.76;95795.28;5047212;28;20453;-79
2024/01/23 09:42:48;;;;;;;111.28;62.55;;;;;;;16.69;17.47;95788.81;5046819;28;20093;-80
2024/01/23 09:45:17;;;;;;;105.63;59.58;;;;;;;16.69;17.38;95793.59;5046928;28;20029;-78
2024/01/23 09:47:49;;;;;;;100.68;60.83;;;;;;;16.92;17.31;95789.53;5047262;28;20031;-78
2024/01/23 09:50:16;;;;;;;106.05;61.67;;;;;;;17.14;17.33;95783.88;5046597;28;20404;-79
2024/01/23 09:52:50;;;;;;;98.75;59.60;;;;;;;17.72;16.72;95778.28;5047042;28;20036;-80
2024/01/23 09:55:16;;;;;;;105.78;62.10;;;;;;;17.92;16.41;95775.00;5047380;28;20035;-81
2024/01/23 09:57:47;;;;;;;114.68;62.08;;;;;;;17.88;16.86;95776.41;5045377;28;20056;-80
2024/01/23 10:00:13;;;;;;;102.10;60.47;;;;;;;18.25;16.20;95768.78;5046891;28;20112;-80
2024/01/23 10:02:42;;;;;;;109.80;63.88;;;;;;;18.30;16.17;95768.16;5045018;28;20104;-78
2024/01/23 10:05:10;;;;;;;110.47;64.68;;;;;;;18.51;15.92;95764.34;5047499;28;20032;-79
2024/01/23 10:07:39;;;;;;;109.22;64.80;;;;;;;18.82;16.01;95769.69;5046254;28;20105;-78
2024/01/23 10:10:14;;;;;;;97.22;60.67;;;;;;;19.33;15.22;95760.44;5046511;28;20028;-79
2024/01/23 10:12:47;;;;;;;96.57;61.05;;;;;;;19.23;15.38;95752.59;5046694;28;20513;-80
2024/01/23 10:15:18;;;;;;;104.05;62.78;;;;;;;19.74;15.17;95754.44;5046350;28;20025;-80
2024/01/23 10:17:45;;;;;;;105.25;65.03;;;;;;;19.77;15.45;95743.06;5046499;28;20064;-79
2024/01/23 10:20:10;;;;;;;100.07;62.90;;;;;;;20.46;14.90;95731.88;5046050;28;20028;-79
2024/01/23 10:22:36;;;;;;;100.63;63.88;;;;;;;20.43;14.45;95733.59;5046537;28;20028;-81
2024/01/23 10:25:03;;;;;;;100.85;63.78;;;;;;;20.55;14.82;95717.81;5046255;28;20380;-78
2024/01/23 10:27:30;;;;;;;96.68;64.13;;;;;;;21.08;14.44;95725.19;5045911;28;20025;-77
2024/01/23 10:29:56;;;;;;;102.32;65.43;;;;;;;21.33;14.06;95727.34;5048703;28;20062;-77
2024/01/23 10:32:25;;;;;;;99.07;64.90;;;;;;;21.08;14.25;95723.16;5046126;28;20025;-77
2024/01/23 10:34:54;;;;;;;99.85;64.25;;;;;;;21.18;14.51;95715.44;5047219;28;20041;-78
2024/01/23 10:37:21;;;;;;;96.18;62.97;;;;;;;21.47;14.01;95720.91;5046467;28;20021;-77
2024/01/23 10:39:48;;;;;;;97.88;61.95;;;;;;;21.88;13.59;95718.06;5047490;28;20421;-77
2024/01/23 10:42:13;;;;;;;98.78;62.90;;;;;;;21.76;13.68;95704.47;5045206;28;20478;-78
2024/01/23 10:44:40;;;;;;;98.57;64.10;;;;;;;21.80;13.71;95710.63;5046521;28;20029;-78
2024/01/23 10:47:06;;;;;;;98.82;63.72;;;;;;;21.92;13.71;95709.47;5045053;28;20037;-78
2024/01/23 10:49:31;;;;;;;104.35;66.10;;;;;;;22.35;13.53;95707.59;5044169;28;20142;-77
2024/01/23 10:52:02;;;;;;;100.93;66.03;;;;;;;22.42;13.58;95700.75;5046120;28;20024;-77
2024/01/23 10:54:30;;;;;;;103.30;69.03;;;;;;;22.82;13.17;95699.03;5045714;28;20032;-77
2024/01/23 10:56:56;;;;;;;100.43;65.47;;;;;;;22.79;13.00;95692.41;5046049;28;20021;-78
2024/01/23 10:59:26;;;;;;;107.55;68.55;;;;;;;23.25;12.71;95691.41;5043796;28;20028;-78
2024/01/23 11:01:56;;;;;;;104.28;67.50;;;;;;;23.13;12.82;95684.22;5045848;28;20247;-78
2024/01/23 11:04:21;;;;;;;107.25;68.25;;;;;;;23.26;12.71;95690.13;5044203;28;20369;-79
2024/01/23 11:07:10;;;;;;;103.00;68.15;;;;;;;23.30;12.70;95679.44;5045547;28;20574;-78
2024/01/23 11:09:57;;;;;;;103.22;65.78;;;;;;;23.52;12.78;95670.34;5044138;28;20036;-78
2024/01/23 11:12:27;;;;;;;100.97;66.47;;;;;;;23.28;12.73;95673.56;5043183;28;20029;-79